sensor_id;sensor_type;location;lat;lon;timestamp;pressure;altitude;pressure_sealevel;temperature;humidity
46448;BME280;32145;50.390;30.778;2023-01-15T00:00:21;100704.78;;;-2.43;86.88
46448;BME280;32145;50.390;30.778;2023-01-15T00:03:05;100710.81;;;-2.41;86.50
46448;BME280;32145;50.390;30.778;2023-01-15T00:05:50;100701.28;;;-2.44;86.19
46448;BME280;32145;50.390;30.778;2023-01-15T00:08:34;100689.94;;;-2.46;86.14
46448;BME280;32145;50.390;30.778;2023-01-15T00:11:18;100697.06;;;-2.47;86.60
46448;BME280;32145;50.390;30.778;2023-01-15T00:14:03;100689.81;;;-2.44;86.39
46448;BME280;32145;50.390;30.778;2023-01-15T00:16:49;100698.63;;;-2.44;86.46
46448;BME280;32145;50.390;30.778;2023-01-15T00:19:34;100687.16;;;-2.44;85.96
46448;BME280;32145;50.390;30.778;2023-01-15T00:22:19;100684.50;;;-2.44;86.46
46448;BME280;32145;50.390;30.778;2023-01-15T00:25:04;100688.00;;;-2.44;86.19
46448;BME280;32145;50.390;30.778;2023-01-15T00:27:49;100678.22;;;-2.43;86.47
46448;BME280;32145;50.390;30.778;2023-01-15T00:30:32;100679.19;;;-2.44;86.32
46448;BME280;32145;50.390;30.778;2023-01-15T00:33:16;100682.94;;;-2.47;86.30
46448;BME280;32145;50.390;30.778;2023-01-15T00:36:00;100683.06;;;-2.49;86.54
46448;BME280;32145;50.390;30.778;2023-01-15T00:38:46;100691.03;;;-2.49;86.35
46448;BME280;32145;50.390;30.778;2023-01-15T00:41:29;100683.78;;;-2.47;86.64
46448;BME280;32145;50.390;30.778;2023-01-15T00:44:13;100679.44;;;-2.48;86.31
46448;BME280;32145;50.390;30.778;2023-01-15T00:46:58;100674.97;;;-2.47;86.11
46448;BME280;32145;50.390;30.778;2023-01-15T00:49:42;100680.41;;;-2.49;86.62
46448;BME280;32145;50.390;30.778;2023-01-15T00:52:26;100683.78;;;-2.47;86.48
46448;BME280;32145;50.390;30.778;2023-01-15T00:55:11;100674.97;;;-2.47;86.43
46448;BME280;32145;50.390;30.778;2023-01-15T00:57:55;100673.16;;;-2.47;86.22
46448;BME280;32145;50.390;30.778;2023-01-15T01:00:39;100667.84;;;-2.47;86.32
46448;BME280;32145;50.390;30.778;2023-01-15T01:03:35;100662.53;;;-2.47;86.67
46448;BME280;32145;50.390;30.778;2023-01-15T01:06:20;100666.16;;;-2.48;86.29
46448;BME280;32145;50.390;30.778;2023-01-15T01:09:04;100660.03;;;-2.48;86.73
46448;BME280;32145;50.390;30.778;2023-01-15T01:11:49;100660.84;;;-2.48;86.69
46448;BME280;32145;50.390;30.778;2023-01-15T01:14:34;100657.22;;;-2.47;86.85
46448;BME280;32145;50.390;30.778;2023-01-15T01:17:19;100654.72;;;-2.48;86.40
46448;BME280;32145;50.390;30.778;2023-01-15T01:20:04;100656.53;;;-2.49;86.58
46448;BME280;32145;50.390;30.778;2023-01-15T01:22:48;100665.47;;;-2.50;86.75
46448;BME280;32145;50.390;30.778;2023-01-15T01:25:32;100661.09;;;-2.51;86.90
46448;BME280;32145;50.390;30.778;2023-01-15T01:28:17;100654.56;;;-2.47;86.42
46448;BME280;32145;50.390;30.778;2023-01-15T01:31:04;100658.06;;;-2.46;86.31
46448;BME280;32145;50.390;30.778;2023-01-15T01:33:48;100652.63;;;-2.44;86.79
46448;BME280;32145;50.390;30.778;2023-01-15T01:36:34;100651.91;;;-2.47;86.82
46448;BME280;32145;50.390;30.778;2023-01-15T01:39:20;100646.59;;;-2.47;86.66
46448;BME280;32145;50.390;30.778;2023-01-15T01:42:10;100649.97;;;-2.44;87.00
46448;BME280;32145;50.390;30.778;2023-01-15T01:45:06;100649.97;;;-2.44;86.50
46448;BME280;32145;50.390;30.778;2023-01-15T01:47:51;100644.91;;;-2.48;86.69
46448;BME280;32145;50.390;30.778;2023-01-15T01:50:38;100646.75;;;-2.48;86.48
46448;BME280;32145;50.390;30.778;2023-01-15T01:53:29;100651.91;;;-2.47;86.50
46448;BME280;32145;50.390;30.778;2023-01-15T01:56:13;100651.09;;;-2.47;86.73
46448;BME280;32145;50.390;30.778;2023-01-15T01:58:57;100651.91;;;-2.47;86.42
46448;BME280;32145;50.390;30.778;2023-01-15T02:01:42;100651.91;;;-2.47;86.52
46448;BME280;32145;50.390;30.778;2023-01-15T02:04:28;100657.22;;;-2.47;86.50
46448;BME280;32145;50.390;30.778;2023-01-15T02:07:13;100658.06;;;-2.46;86.64
46448;BME280;32145;50.390;30.778;2023-01-15T02:09:58;100657.94;;;-2.44;86.67
46448;BME280;32145;50.390;30.778;2023-01-15T02:12:45;100666.75;;;-2.44;86.63
46448;BME280;32145;50.390;30.778;2023-01-15T02:15:34;100659.75;;;-2.45;86.26
46448;BME280;32145;50.390;30.778;2023-01-15T02:18:23;100657.94;;;-2.44;86.82
46448;BME280;32145;50.390;30.778;2023-01-15T02:21:16;100651.66;;;-2.43;86.68
46448;BME280;32145;50.390;30.778;2023-01-15T02:24:08;100650.97;;;-2.46;86.49
46448;BME280;32145;50.390;30.778;2023-01-15T02:27:05;100643.94;;;-2.47;86.64
46448;BME280;32145;50.390;30.778;2023-01-15T02:29:55;100647.69;;;-2.49;86.66
46448;BME280;32145;50.390;30.778;2023-01-15T02:32:44;100650.22;;;-2.48;86.74
46448;BME280;32145;50.390;30.778;2023-01-15T02:35:32;100644.91;;;-2.48;86.54
46448;BME280;32145;50.390;30.778;2023-01-15T02:38:20;100650.22;;;-2.48;86.98
46448;BME280;32145;50.390;30.778;2023-01-15T02:41:08;100656.41;;;-2.47;86.50
46448;BME280;32145;50.390;30.778;2023-01-15T02:43:55;100648.31;;;-2.46;87.07
46448;BME280;32145;50.390;30.778;2023-01-15T02:46:40;100643.94;;;-2.47;86.44
46448;BME280;32145;50.390;30.778;2023-01-15T02:49:26;100643.00;;;-2.46;86.94
46448;BME280;32145;50.390;30.778;2023-01-15T02:52:14;100656.97;;;-2.43;86.49
46448;BME280;32145;50.390;30.778;2023-01-15T02:55:03;100649.97;;;-2.44;86.95
46448;BME280;32145;50.390;30.778;2023-01-15T02:57:48;100639.09;;;-2.41;86.57
46448;BME280;32145;50.390;30.778;2023-01-15T03:00:37;100634.03;;;-2.44;86.81
46448;BME280;32145;50.390;30.778;2023-01-15T03:03:30;100644.22;;;-2.50;86.73
46448;BME280;32145;50.390;30.778;2023-01-15T03:06:19;100639.84;;;-2.51;86.82
46448;BME280;32145;50.390;30.778;2023-01-15T03:09:05;100642.25;;;-2.48;86.53
46448;BME280;32145;50.390;30.778;2023-01-15T03:11:57;100649.13;;;-2.45;86.56
46448;BME280;32145;50.390;30.778;2023-01-15T03:14:49;100646.59;;;-2.47;86.51
46448;BME280;32145;50.390;30.778;2023-01-15T03:17:40;100643.00;;;-2.46;87.21
46448;BME280;32145;50.390;30.778;2023-01-15T03:20:29;100634.78;;;-2.42;86.91
46448;BME280;32145;50.390;30.778;2023-01-15T03:23:15;100631.97;;;-2.41;87.19
46448;BME280;32145;50.390;30.778;2023-01-15T03:26:01;100633.53;;;-2.38;86.77
46448;BME280;32145;50.390;30.778;2023-01-15T03:28:47;100639.22;;;-2.43;86.58
46448;BME280;32145;50.390;30.778;2023-01-15T03:31:32;100645.66;;;-2.46;86.34
46448;BME280;32145;50.390;30.778;2023-01-15T03:34:19;100643.25;;;-2.49;86.57
46448;BME280;32145;50.390;30.778;2023-01-15T03:37:03;100648.56;;;-2.49;86.77
46448;BME280;32145;50.390;30.778;2023-01-15T03:39:48;100639.59;;;-2.48;86.97
46448;BME280;32145;50.390;30.778;2023-01-15T03:42:42;100637.69;;;-2.46;86.79
46448;BME280;32145;50.390;30.778;2023-01-15T03:45:31;100644.53;;;-2.43;87.01
46448;BME280;32145;50.390;30.778;2023-01-15T03:48:23;100637.69;;;-2.46;86.53
46448;BME280;32145;50.390;30.778;2023-01-15T03:51:17;100633.19;;;-2.45;86.70
46448;BME280;32145;50.390;30.778;2023-01-15T03:54:06;100628.72;;;-2.44;86.76
46448;BME280;32145;50.390;30.778;2023-01-15T03:56:58;100630.41;;;-2.43;86.57
46448;BME280;32145;50.390;30.778;2023-01-15T03:59:49;100635.72;;;-2.43;86.67
46448;BME280;32145;50.390;30.778;2023-01-15T04:02:35;100629.47;;;-2.42;86.48
46448;BME280;32145;50.390;30.778;2023-01-15T04:05:20;100630.53;;;-2.45;86.50
46448;BME280;32145;50.390;30.778;2023-01-15T04:08:07;100634.03;;;-2.44;86.49
46448;BME280;32145;50.390;30.778;2023-01-15T04:10:52;100633.19;;;-2.45;86.16
46448;BME280;32145;50.390;30.778;2023-01-15T04:13:36;100631.38;;;-2.44;86.22
46448;BME280;32145;50.390;30.778;2023-01-15T04:16:24;100620.03;;;-2.47;86.44
46448;BME280;32145;50.390;30.778;2023-01-15T04:19:08;100623.69;;;-2.48;86.65
46448;BME280;32145;50.390;30.778;2023-01-15T04:21:52;100619.22;;;-2.47;86.40
46448;BME280;32145;50.390;30.778;2023-01-15T04:24:38;100617.53;;;-2.48;86.34
46448;BME280;32145;50.390;30.778;2023-01-15T04:27:22;100622.00;;;-2.49;86.68
46448;BME280;32145;50.390;30.778;2023-01-15T04:30:08;100619.47;;;-2.50;86.24
46448;BME280;32145;50.390;30.778;2023-01-15T04:32:52;100629.13;;;-2.49;86.65
46448;BME280;32145;50.390;30.778;2023-01-15T04:35:37;100627.56;;;-2.52;86.53
46448;BME280;32145;50.390;30.778;2023-01-15T04:38:21;100625.03;;;-2.53;86.57
46448;BME280;32145;50.390;30.778;2023-01-15T04:41:06;100629.25;;;-2.51;86.69
46448;BME280;32145;50.390;30.778;2023-01-15T04:43:50;100630.94;;;-2.50;86.46
46448;BME280;32145;50.390;30.778;2023-01-15T04:46:36;100631.88;;;-2.51;86.27
46448;BME280;32145;50.390;30.778;2023-01-15T04:49:21;100616.94;;;-2.52;86.40
46448;BME280;32145;50.390;30.778;2023-01-15T04:52:05;100615.25;;;-2.53;86.79
46448;BME280;32145;50.390;30.778;2023-01-15T04:54:48;100613.47;;;-2.52;86.76
46448;BME280;32145;50.390;30.778;2023-01-15T04:57:34;100609.97;;;-2.53;86.23
46448;BME280;32145;50.390;30.778;2023-01-15T05:00:18;100606.31;;;-2.52;86.15
46448;BME280;32145;50.390;30.778;2023-01-15T05:03:03;100605.50;;;-2.52;86.32
46448;BME280;32145;50.390;30.778;2023-01-15T05:05:47;100603.91;;;-2.55;86.43
46448;BME280;32145;50.390;30.778;2023-01-15T05:08:31;100601.25;;;-2.55;86.68
46448;BME280;32145;50.390;30.778;2023-01-15T05:11:15;100605.50;;;-2.52;86.61
46448;BME280;32145;50.390;30.778;2023-01-15T05:14:00;100611.63;;;-2.52;86.46
46448;BME280;32145;50.390;30.778;2023-01-15T05:16:44;100616.94;;;-2.52;86.53
46448;BME280;32145;50.390;30.778;2023-01-15T05:19:28;100616.94;;;-2.52;86.37
46448;BME280;32145;50.390;30.778;2023-01-15T05:22:12;100609.97;;;-2.53;86.33
46448;BME280;32145;50.390;30.778;2023-01-15T05:24:56;100620.56;;;-2.53;86.58
46448;BME280;32145;50.390;30.778;2023-01-15T05:27:40;100615.50;;;-2.56;86.45
46448;BME280;32145;50.390;30.778;2023-01-15T05:30:25;100610.22;;;-2.56;85.94
46448;BME280;32145;50.390;30.778;2023-01-15T05:33:09;100614.53;;;-2.55;86.68
46448;BME280;32145;50.390;30.778;2023-01-15T05:35:53;100611.88;;;-2.55;86.61
46448;BME280;32145;50.390;30.778;2023-01-15T05:38:37;100609.97;;;-2.53;86.17
46448;BME280;32145;50.390;30.778;2023-01-15T05:41:22;100608.00;;;-2.51;85.81
46448;BME280;32145;50.390;30.778;2023-01-15T05:44:07;100608.97;;;-2.52;86.06
46448;BME280;32145;50.390;30.778;2023-01-15T05:46:55;100602.97;;;-2.54;86.20
46448;BME280;32145;50.390;30.778;2023-01-15T05:49:39;100606.56;;;-2.55;86.68
46448;BME280;32145;50.390;30.778;2023-01-15T05:52:23;100607.44;;;-2.54;86.52
46448;BME280;32145;50.390;30.778;2023-01-15T05:55:08;100607.44;;;-2.54;86.43
46448;BME280;32145;50.390;30.778;2023-01-15T05:57:52;100608.28;;;-2.54;86.10
46448;BME280;32145;50.390;30.778;2023-01-15T06:00:36;100615.97;;;-2.51;86.51
46448;BME280;32145;50.390;30.778;2023-01-15T06:03:21;100613.31;;;-2.51;86.07
46448;BME280;32145;50.390;30.778;2023-01-15T06:06:06;100609.97;;;-2.53;86.25
46448;BME280;32145;50.390;30.778;2023-01-15T06:08:51;100609.09;;;-2.53;86.12
46448;BME280;32145;50.390;30.778;2023-01-15T06:11:35;100615.66;;;-2.57;86.30
46448;BME280;32145;50.390;30.778;2023-01-15T06:14:19;100604.91;;;-2.56;86.25
46448;BME280;32145;50.390;30.778;2023-01-15T06:17:03;100602.13;;;-2.54;86.00
46448;BME280;32145;50.390;30.778;2023-01-15T06:19:48;100615.25;;;-2.53;86.83
46448;BME280;32145;50.390;30.778;2023-01-15T06:22:32;100611.63;;;-2.52;86.72
46448;BME280;32145;50.390;30.778;2023-01-15T06:25:16;100620.31;;;-2.50;86.43
46448;BME280;32145;50.390;30.778;2023-01-15T06:28:00;100618.50;;;-2.49;86.13
46448;BME280;32145;50.390;30.778;2023-01-15T06:30:44;100613.06;;;-2.48;86.83
46448;BME280;32145;50.390;30.778;2023-01-15T06:33:28;100616.31;;;-2.44;86.56
46448;BME280;32145;50.390;30.778;2023-01-15T06:36:15;100617.00;;;-2.42;86.19
46448;BME280;32145;50.390;30.778;2023-01-15T06:38:59;100612.66;;;-2.43;86.46
46448;BME280;32145;50.390;30.778;2023-01-15T06:41:43;100611.69;;;-2.42;86.28
46448;BME280;32145;50.390;30.778;2023-01-15T06:44:27;100601.66;;;-2.38;86.26
46448;BME280;32145;50.390;30.778;2023-01-15T06:47:13;100595.38;;;-2.37;85.78
46448;BME280;32145;50.390;30.778;2023-01-15T06:49:57;100599.72;;;-2.36;86.27
46448;BME280;32145;50.390;30.778;2023-01-15T06:52:43;100602.97;;;-2.33;86.30
46448;BME280;32145;50.390;30.778;2023-01-15T06:55:26;100607.28;;;-2.31;86.08
46448;BME280;32145;50.390;30.778;2023-01-15T06:58:11;100607.03;;;-2.28;86.41
46448;BME280;32145;50.390;30.778;2023-01-15T07:00:55;100595.44;;;-2.27;86.33
46448;BME280;32145;50.390;30.778;2023-01-15T07:03:39;100604.50;;;-2.30;86.28
46448;BME280;32145;50.390;30.778;2023-01-15T07:06:23;100605.34;;;-2.29;86.60
46448;BME280;32145;50.390;30.778;2023-01-15T07:09:09;100605.63;;;-2.23;86.22
46448;BME280;32145;50.390;30.778;2023-01-15T07:11:52;100601.78;;;-2.18;85.98
46448;BME280;32145;50.390;30.778;2023-01-15T07:14:36;100599.56;;;-2.13;86.31
46448;BME280;32145;50.390;30.778;2023-01-15T07:17:20;100600.38;;;-2.13;86.15
46448;BME280;32145;50.390;30.778;2023-01-15T07:20:06;100594.25;;;-2.13;86.62
46448;BME280;32145;50.390;30.778;2023-01-15T07:22:50;100593.25;;;-2.12;86.02
46448;BME280;32145;50.390;30.778;2023-01-15T07:25:36;100598.31;;;-2.09;86.32
46448;BME280;32145;50.390;30.778;2023-01-15T07:28:22;100600.97;;;-2.09;86.34
46448;BME280;32145;50.390;30.778;2023-01-15T07:31:07;100607.13;;;-2.09;86.08
46448;BME280;32145;50.390;30.778;2023-01-15T07:33:51;100599.72;;;-2.05;86.06
46448;BME280;32145;50.390;30.778;2023-01-15T07:36:34;100597.75;;;-2.03;85.68
46448;BME280;32145;50.390;30.778;2023-01-15T07:39:18;100601.41;;;-2.04;85.66
46448;BME280;32145;50.390;30.778;2023-01-15T07:42:04;100600.44;;;-2.03;86.32
46448;BME280;32145;50.390;30.778;2023-01-15T07:44:48;100603.28;;;-1.95;86.09
46448;BME280;32145;50.390;30.778;2023-01-15T07:47:32;100604.97;;;-1.93;85.96
46448;BME280;32145;50.390;30.778;2023-01-15T07:50:17;100598.66;;;-1.92;85.50
46448;BME280;32145;50.390;30.778;2023-01-15T07:53:02;100599.66;;;-1.93;85.97
46448;BME280;32145;50.390;30.778;2023-01-15T07:55:46;100607.88;;;-1.97;85.85
46448;BME280;32145;50.390;30.778;2023-01-15T07:58:31;100603.69;;;-1.99;85.97
46448;BME280;32145;50.390;30.778;2023-01-15T08:01:16;100610.00;;;-1.90;86.04
46448;BME280;32145;50.390;30.778;2023-01-15T08:03:59;100606.13;;;-1.86;85.56
46448;BME280;32145;50.390;30.778;2023-01-15T08:06:43;100609.19;;;-1.81;85.78
46448;BME280;32145;50.390;30.778;2023-01-15T08:09:28;100604.31;;;-1.76;85.92
46448;BME280;32145;50.390;30.778;2023-01-15T08:12:12;100600.53;;;-1.73;85.92
46448;BME280;32145;50.390;30.778;2023-01-15T08:14:57;100592.44;;;-1.72;85.69
46448;BME280;32145;50.390;30.778;2023-01-15T08:17:43;100587.41;;;-1.75;85.60
46448;BME280;32145;50.390;30.778;2023-01-15T08:20:27;100593.00;;;-1.78;85.65
46448;BME280;32145;50.390;30.778;2023-01-15T08:23:11;100592.44;;;-1.72;85.58
46448;BME280;32145;50.390;30.778;2023-01-15T08:25:57;100591.59;;;-1.72;85.49
46448;BME280;32145;50.390;30.778;2023-01-15T08:28:42;100596.06;;;-1.73;85.27
46448;BME280;32145;50.390;30.778;2023-01-15T08:31:27;100601.66;;;-1.76;85.30
46448;BME280;32145;50.390;30.778;2023-01-15T08:34:11;100609.19;;;-1.81;84.79
46448;BME280;32145;50.390;30.778;2023-01-15T08:36:55;100611.84;;;-1.81;84.68
46448;BME280;32145;50.390;30.778;2023-01-15T08:39:39;100601.22;;;-1.81;85.12
46448;BME280;32145;50.390;30.778;2023-01-15T08:42:23;100600.25;;;-1.80;85.27
46448;BME280;32145;50.390;30.778;2023-01-15T08:45:08;100594.66;;;-1.77;85.22
46448;BME280;32145;50.390;30.778;2023-01-15T08:47:55;100590.75;;;-1.73;85.12
46448;BME280;32145;50.390;30.778;2023-01-15T08:50:39;100586.84;;;-1.69;84.92
46448;BME280;32145;50.390;30.778;2023-01-15T08:53:23;100584.91;;;-1.66;84.75
46448;BME280;32145;50.390;30.778;2023-01-15T08:56:11;100583.34;;;-1.69;85.26
46448;BME280;32145;50.390;30.778;2023-01-15T08:58:55;100577.19;;;-1.70;84.96
46448;BME280;32145;50.390;30.778;2023-01-15T09:01:40;100579.59;;;-1.66;85.09
46448;BME280;32145;50.390;30.778;2023-01-15T09:04:25;100575.09;;;-1.66;84.65
46448;BME280;32145;50.390;30.778;2023-01-15T09:07:09;100566.16;;;-1.65;84.64
46448;BME280;32145;50.390;30.778;2023-01-15T09:09:53;100564.59;;;-1.67;84.78
46448;BME280;32145;50.390;30.778;2023-01-15T09:12:37;100565.31;;;-1.65;84.77
46448;BME280;32145;50.390;30.778;2023-01-15T09:15:21;100567.84;;;-1.64;84.72
46448;BME280;32145;50.390;30.778;2023-01-15T09:18:05;100555.22;;;-1.62;84.49
46448;BME280;32145;50.390;30.778;2023-01-15T09:20:51;100551.31;;;-1.58;84.89
46448;BME280;32145;50.390;30.778;2023-01-15T09:23:35;100554.09;;;-1.59;84.95
46448;BME280;32145;50.390;30.778;2023-01-15T09:26:24;100547.13;;;-1.60;84.84
46448;BME280;32145;50.390;30.778;2023-01-15T09:29:09;100548.09;;;-1.61;84.52
46448;BME280;32145;50.390;30.778;2023-01-15T09:31:53;100545.19;;;-1.58;84.63
46448;BME280;32145;50.390;30.778;2023-01-15T09:34:37;100543.06;;;-1.54;84.50
46448;BME280;32145;50.390;30.778;2023-01-15T09:37:22;100541.41;;;-1.56;84.43
46448;BME280;32145;50.390;30.778;2023-01-15T09:40:18;100529.78;;;-1.54;84.47
46448;BME280;32145;50.390;30.778;2023-01-15T09:43:08;100526.00;;;-1.52;84.35
46448;BME280;32145;50.390;30.778;2023-01-15T09:45:59;100521.41;;;-1.50;84.79
46448;BME280;32145;50.390;30.778;2023-01-15T09:48:51;100520.41;;;-1.49;84.54
46448;BME280;32145;50.390;30.778;2023-01-15T09:51:44;100520.00;;;-1.44;84.19
46448;BME280;32145;50.390;30.778;2023-01-15T09:54:43;100527.25;;;-1.46;84.29
46448;BME280;32145;50.390;30.778;2023-01-15T09:57:29;100528.38;;;-1.49;84.21
46448;BME280;32145;50.390;30.778;2023-01-15T10:00:17;100521.66;;;-1.53;84.59
46448;BME280;32145;50.390;30.778;2023-01-15T10:03:05;100512.84;;;-1.53;84.16
46448;BME280;32145;50.390;30.778;2023-01-15T10:05:55;100505.44;;;-1.50;84.47
46448;BME280;32145;50.390;30.778;2023-01-15T10:08:45;100484.16;;;-1.50;84.15
46448;BME280;32145;50.390;30.778;2023-01-15T10:11:38;100480.50;;;-1.49;84.44
46448;BME280;32145;50.390;30.778;2023-01-15T10:14:31;100477.31;;;-1.43;84.29
46448;BME280;32145;50.390;30.778;2023-01-15T10:17:21;100464.69;;;-1.40;84.58
46448;BME280;32145;50.390;30.778;2023-01-15T10:20:15;100457.97;;;-1.35;83.98
46448;BME280;32145;50.390;30.778;2023-01-15T10:23:09;100452.50;;;-1.33;84.33
46448;BME280;32145;50.390;30.778;2023-01-15T10:26:02;100442.28;;;-1.28;84.48
46448;BME280;32145;50.390;30.778;2023-01-15T10:28:57;100441.31;;;-1.27;84.21
46448;BME280;32145;50.390;30.778;2023-01-15T10:31:48;100450.25;;;-1.28;84.08
46448;BME280;32145;50.390;30.778;2023-01-15T10:34:56;100443.13;;;-1.27;84.36
46448;BME280;32145;50.390;30.778;2023-01-15T10:37:46;100453.91;;;-1.29;84.00
46448;BME280;32145;50.390;30.778;2023-01-15T10:41:01;100444.13;;;-1.28;84.39
46448;BME280;32145;50.390;30.778;2023-01-15T10:43:54;100431.94;;;-1.31;83.79
46448;BME280;32145;50.390;30.778;2023-01-15T10:46:45;100447.47;;;-1.36;83.89
46448;BME280;32145;50.390;30.778;2023-01-15T10:49:32;100448.59;;;-1.39;84.14
46448;BME280;32145;50.390;30.778;2023-01-15T10:52:23;100444.66;;;-1.35;84.14
46448;BME280;32145;50.390;30.778;2023-01-15T10:55:18;100451.13;;;-1.37;84.46
46448;BME280;32145;50.390;30.778;2023-01-15T10:58:10;100438.81;;;-1.38;84.37
46448;BME280;32145;50.390;30.778;2023-01-15T11:01:03;100425.66;;;-1.40;84.42
46448;BME280;32145;50.390;30.778;2023-01-15T11:03:48;100433.75;;;-1.41;84.11
46448;BME280;32145;50.390;30.778;2023-01-15T11:06:33;100420.31;;;-1.40;83.97
46448;BME280;32145;50.390;30.778;2023-01-15T11:09:19;100420.88;;;-1.36;84.01
46448;BME280;32145;50.390;30.778;2023-01-15T11:12:16;100411.34;;;-1.39;83.99
46448;BME280;32145;50.390;30.778;2023-01-15T11:15:12;100419.88;;;-1.35;84.35
46448;BME280;32145;50.390;30.778;2023-01-15T11:18:00;100410.81;;;-1.43;83.90
46448;BME280;32145;50.390;30.778;2023-01-15T11:20:46;100393.16;;;-1.44;84.11
46448;BME280;32145;50.390;30.778;2023-01-15T11:23:34;100407.44;;;-1.45;84.09
46448;BME280;32145;50.390;30.778;2023-01-15T11:26:21;100399.31;;;-1.43;84.08
46448;BME280;32145;50.390;30.778;2023-01-15T11:29:13;100395.41;;;-1.49;84.34
46448;BME280;32145;50.390;30.778;2023-01-15T11:31:58;100389.81;;;-1.46;84.11
46448;BME280;32145;50.390;30.778;2023-01-15T11:34:51;100389.22;;;-1.39;84.49
46448;BME280;32145;50.390;30.778;2023-01-15T11:37:35;100382.22;;;-1.40;84.19
46448;BME280;32145;50.390;30.778;2023-01-15T11:40:21;100372.97;;;-1.36;84.17
46448;BME280;32145;50.390;30.778;2023-01-15T11:43:18;100368.25;;;-1.33;84.26
46448;BME280;32145;50.390;30.778;2023-01-15T11:46:03;100371.03;;;-1.34;84.04
46448;BME280;32145;50.390;30.778;2023-01-15T11:48:47;100366.28;;;-1.40;83.97
46448;BME280;32145;50.390;30.778;2023-01-15T11:51:37;100363.75;;;-1.42;84.19
46448;BME280;32145;50.390;30.778;2023-01-15T11:54:24;100369.66;;;-1.38;84.48
46448;BME280;32145;50.390;30.778;2023-01-15T11:57:09;100375.50;;;-1.35;84.34
46448;BME280;32145;50.390;30.778;2023-01-15T11:59:54;100374.38;;;-1.32;84.13
46448;BME280;32145;50.390;30.778;2023-01-15T12:02:40;100366.84;;;-1.37;84.03
46448;BME280;32145;50.390;30.778;2023-01-15T12:05:29;100376.91;;;-1.40;84.22
46448;BME280;32145;50.390;30.778;2023-01-15T12:08:28;100376.09;;;-1.41;84.28
46448;BME280;32145;50.390;30.778;2023-01-15T12:14:56;100379.19;;;-1.46;83.95
46448;BME280;32145;50.390;30.778;2023-01-15T12:17:53;100387.28;;;-1.47;84.52
46448;BME280;32145;50.390;30.778;2023-01-15T12:20:50;100384.50;;;-1.46;84.65
46448;BME280;32145;50.390;30.778;2023-01-15T12:23:50;100388.41;;;-1.50;84.54
46448;BME280;32145;50.390;30.778;2023-01-15T12:26:54;100386.44;;;-1.48;84.52
46448;BME280;32145;50.390;30.778;2023-01-15T12:29:45;100391.63;;;-1.46;84.27
46448;BME280;32145;50.390;30.778;2023-01-15T12:32:36;100390.09;;;-1.49;84.48
46448;BME280;32145;50.390;30.778;2023-01-15T12:35:28;100393.16;;;-1.44;84.36
46448;BME280;32145;50.390;30.778;2023-01-15T12:38:17;100391.34;;;-1.43;84.84
46448;BME280;32145;50.390;30.778;2023-01-15T12:41:09;100387.84;;;-1.44;84.49
46448;BME280;32145;50.390;30.778;2023-01-15T12:43:57;100389.81;;;-1.46;84.73
46448;BME280;32145;50.390;30.778;2023-01-15T12:46:44;100389.94;;;-1.47;84.51
46448;BME280;32145;50.390;30.778;2023-01-15T12:49:33;100388.13;;;-1.47;84.69
46448;BME280;32145;50.390;30.778;2023-01-15T12:52:23;100387.44;;;-1.49;84.76
46448;BME280;32145;50.390;30.778;2023-01-15T12:55:14;100377.50;;;-1.47;84.77
46448;BME280;32145;50.390;30.778;2023-01-15T12:58:02;100381.13;;;-1.48;84.78
46448;BME280;32145;50.390;30.778;2023-01-15T13:00:48;100383.63;;;-1.46;84.60
46448;BME280;32145;50.390;30.778;2023-01-15T13:03:48;100387.84;;;-1.44;84.58
46448;BME280;32145;50.390;30.778;2023-01-15T13:06:39;100389.81;;;-1.46;84.81
46448;BME280;32145;50.390;30.778;2023-01-15T13:09:34;100385.31;;;-1.45;84.27
46448;BME280;32145;50.390;30.778;2023-01-15T13:12:19;100370.19;;;-1.45;84.40
46448;BME280;32145;50.390;30.778;2023-01-15T13:15:06;100357.63;;;-1.43;84.15
46448;BME280;32145;50.390;30.778;2023-01-15T13:17:58;100345.28;;;-1.44;84.36
46448;BME280;32145;50.390;30.778;2023-01-15T13:20:47;100343.59;;;-1.45;84.12
46448;BME280;32145;50.390;30.778;2023-01-15T13:23:49;100345.59;;;-1.47;84.05
46448;BME280;32145;50.390;30.778;2023-01-15T13:26:50;100352.84;;;-1.49;84.36
46448;BME280;32145;50.390;30.778;2023-01-15T13:29:52;100344.19;;;-1.51;84.41
46448;BME280;32145;50.390;30.778;2023-01-15T13:32:44;100338.03;;;-1.61;84.63
46448;BME280;32145;50.390;30.778;2023-01-15T13:35:32;100336.06;;;-1.59;84.58
46448;BME280;32145;50.390;30.778;2023-01-15T13:38:20;100336.22;;;-1.61;84.70
46448;BME280;32145;50.390;30.778;2023-01-15T13:41:06;100323.22;;;-1.64;84.80
46448;BME280;32145;50.390;30.778;2023-01-15T13:43:50;100320.69;;;-1.65;84.42
46448;BME280;32145;50.390;30.778;2023-01-15T13:46:34;100314.81;;;-1.69;84.90
46448;BME280;32145;50.390;30.778;2023-01-15T13:49:23;100312.47;;;-1.72;85.01
46448;BME280;32145;50.390;30.778;2023-01-15T13:52:20;100313.72;;;-1.76;84.69
46448;BME280;32145;50.390;30.778;2023-01-15T13:55:10;100316.53;;;-1.78;85.14
46448;BME280;32145;50.390;30.778;2023-01-15T13:57:55;100311.06;;;-1.76;85.19
46448;BME280;32145;50.390;30.778;2023-01-15T14:00:39;100319.88;;;-1.76;84.66
46448;BME280;32145;50.390;30.778;2023-01-15T14:03:25;100326.59;;;-1.82;85.12
46448;BME280;32145;50.390;30.778;2023-01-15T14:06:11;100325.44;;;-1.79;85.31
46448;BME280;32145;50.390;30.778;2023-01-15T14:08:55;100326.59;;;-1.82;84.77
46448;BME280;32145;50.390;30.778;2023-01-15T14:11:53;100333.72;;;-1.82;84.79
46448;BME280;32145;50.390;30.778;2023-01-15T14:15:00;100328.41;;;-1.82;84.73
46448;BME280;32145;50.390;30.778;2023-01-15T14:21:23;100320.72;;;-1.85;85.35
46448;BME280;32145;50.390;30.778;2023-01-15T14:27:52;100316.53;;;-1.88;85.47
46448;BME280;32145;50.390;30.778;2023-01-15T14:31:01;100311.22;;;-1.88;85.00
46448;BME280;32145;50.390;30.778;2023-01-15T14:33:56;100310.38;;;-1.88;85.35